Time;durP1;ratioP1;P1;durP2;ratioP2;P2;SDS_P1;SDS_P2;PMS_P1;PMS_P2;Temp;Humidity;BMP_temperature;BMP_pressure;BME280_temperature;BME280_humidity;BME280_pressure;Samples;Min_cycle;Max_cycle;Signal;HPM_P1;HPM_P2
2021/03/26 00:00:59;;;;;;;4.90;3.67;;;8.00;99.90;;;;;;5031100;28;20557;-46
2021/03/26 00:03:30;;;;;;;6.20;3.97;;;7.90;99.90;;;;;;5025846;28;20477;-46
2021/03/26 00:06:00;;;;;;;10.70;4.73;;;7.80;99.90;;;;;;5024241;28;20453;-45
2021/03/26 00:08:27;;;;;;;8.97;4.13;;;7.90;99.90;;;;;;5015923;28;20450;-45
2021/03/26 00:10:53;;;;;;;8.00;4.23;;;8.10;99.90;;;;;;5023556;28;20451;-45
2021/03/26 00:13:21;;;;;;;11.23;4.70;;;8.10;99.90;;;;;;5028602;28;20480;-46
2021/03/26 00:15:48;;;;;;;7.50;4.27;;;8.00;99.90;;;;;;5030851;28;20510;-46
2021/03/26 00:18:14;;;;;;;6.37;4.27;;;8.00;99.90;;;;;;5030278;28;20614;-46
2021/03/26 00:20:41;;;;;;;7.37;4.60;;;7.70;99.90;;;;;;5030714;28;20451;-45
2021/03/26 00:23:08;;;;;;;8.90;4.33;;;7.60;99.90;;;;;;5021582;28;20475;-46
2021/03/26 00:25:35;;;;;;;6.97;4.33;;;7.60;99.90;;;;;;5015060;28;20463;-45
2021/03/26 00:28:01;;;;;;;8.30;5.00;;;7.40;99.90;;;;;;5030496;28;20449;-45
2021/03/26 00:30:29;;;;;;;8.07;5.10;;;7.20;99.90;;;;;;5030552;28;20475;-46
2021/03/26 00:32:56;;;;;;;12.00;6.30;;;7.20;99.90;;;;;;5029974;28;20537;-46
2021/03/26 00:35:24;;;;;;;9.77;6.43;;;7.20;99.90;;;;;;5030156;28;20460;-45
2021/03/26 00:37:51;;;;;;;13.13;6.80;;;7.00;99.90;;;;;;5030235;28;20993;-46
2021/03/26 00:40:19;;;;;;;10.03;6.97;;;6.90;99.90;;;;;;5029818;28;20457;-45
2021/03/26 00:42:46;;;;;;;10.90;7.10;;;6.90;99.90;;;;;;5029588;28;20464;-45
2021/03/26 00:45:17;;;;;;;9.50;6.30;;;6.90;99.90;;;;;;5030322;28;20468;-46
2021/03/26 00:47:45;;;;;;;11.27;6.73;;;6.70;99.90;;;;;;5030593;28;20447;-45
2021/03/26 00:50:16;;;;;;;11.13;6.30;;;6.80;99.90;;;;;;5030699;28;20501;-46
2021/03/26 00:52:43;;;;;;;12.57;6.60;;;6.80;99.90;;;;;;5029900;28;20471;-45
2021/03/26 00:55:10;;;;;;;10.87;6.30;;;6.80;99.90;;;;;;5028303;28;20837;-45
2021/03/26 00:57:37;;;;;;;9.20;5.97;;;6.90;99.90;;;;;;5010618;28;20479;-45
2021/03/26 01:00:06;;;;;;;11.30;6.53;;;6.90;99.90;;;;;;5024070;28;20452;-46
2021/03/26 01:02:33;;;;;;;8.63;6.00;;;6.80;99.90;;;;;;5030550;28;20498;-44
2021/03/26 01:05:00;;;;;;;12.60;6.70;;;6.70;99.90;;;;;;5033582;28;20445;-46
2021/03/26 01:07:27;;;;;;;9.43;5.80;;;6.80;99.90;;;;;;5034216;28;20456;-46
2021/03/26 01:09:53;;;;;;;8.53;5.93;;;6.60;99.90;;;;;;5034099;28;20452;-45
2021/03/26 01:12:20;;;;;;;11.00;6.90;;;6.60;99.90;;;;;;5026143;28;20457;-45
2021/03/26 01:14:46;;;;;;;9.00;5.37;;;6.60;99.90;;;;;;5014141;28;20473;-45
2021/03/26 01:17:12;;;;;;;9.47;5.57;;;6.60;99.90;;;;;;5014283;28;20453;-45
2021/03/26 01:19:41;;;;;;;9.10;5.80;;;6.60;99.90;;;;;;5022654;28;20448;-45
2021/03/26 01:22:09;;;;;;;9.90;6.33;;;6.70;99.90;;;;;;5033614;28;20988;-45
2021/03/26 01:24:36;;;;;;;10.40;6.30;;;6.60;99.90;;;;;;5033594;28;20471;-45
2021/03/26 01:27:02;;;;;;;9.57;6.27;;;6.50;99.90;;;;;;5033651;28;20460;-45
2021/03/26 01:29:29;;;;;;;11.33;6.57;;;6.30;99.90;;;;;;5033142;28;20498;-45
2021/03/26 01:31:55;;;;;;;9.67;6.60;;;6.20;99.90;;;;;;5033599;28;20448;-45
2021/03/26 01:34:23;;;;;;;10.00;6.57;;;6.30;99.90;;;;;;5033062;28;20533;-45
2021/03/26 01:36:50;;;;;;;10.37;6.50;;;6.30;99.90;;;;;;5032995;28;20454;-45
2021/03/26 01:39:17;;;;;;;13.10;7.30;;;6.40;99.90;;;;;;5033686;28;20480;-45
2021/03/26 01:41:47;;;;;;;10.80;7.07;;;6.50;99.90;;;;;;5033600;28;20452;-45
2021/03/26 01:44:16;;;;;;;12.00;7.13;;;6.50;99.90;;;;;;5032683;28;20473;-45
2021/03/26 01:46:43;;;;;;;9.70;6.53;;;6.30;99.90;;;;;;5032608;28;20457;-45
2021/03/26 01:49:10;;;;;;;10.47;6.17;;;6.30;99.90;;;;;;5033384;28;20826;-45
2021/03/26 01:51:40;;;;;;;12.40;6.60;;;6.10;99.90;;;;;;5033502;28;20448;-45
2021/03/26 01:54:10;;;;;;;11.90;6.57;;;6.00;99.90;;;;;;5032896;28;20469;-45
2021/03/26 01:56:38;;;;;;;9.67;6.40;;;6.00;99.90;;;;;;5032459;28;20945;-45
2021/03/26 01:59:05;;;;;;;13.77;6.27;;;6.00;99.90;;;;;;5032714;28;20488;-45
2021/03/26 02:01:37;;;;;;;11.20;6.30;;;5.80;99.90;;;;;;5026207;28;20629;-45
2021/03/26 02:04:07;;;;;;;12.23;6.27;;;5.80;99.90;;;;;;5021353;28;20480;-45
2021/03/26 02:06:39;;;;;;;9.40;5.87;;;5.90;99.90;;;;;;5032630;28;20453;-45
2021/03/26 02:09:10;;;;;;;8.07;5.67;;;6.00;99.90;;;;;;5032442;28;20816;-44
2021/03/26 02:11:43;;;;;;;9.77;6.07;;;6.00;99.90;;;;;;5031591;28;20587;-45
2021/03/26 02:14:15;;;;;;;8.60;5.90;;;6.10;99.90;;;;;;5031614;28;20986;-45
2021/03/26 02:16:42;;;;;;;7.53;5.50;;;6.00;99.90;;;;;;5023941;28;20446;-44
2021/03/26 02:19:11;;;;;;;9.80;6.13;;;5.90;99.90;;;;;;5032421;28;20482;-44
2021/03/26 02:21:38;;;;;;;12.03;6.07;;;5.80;99.90;;;;;;5032420;28;20515;-45
2021/03/26 02:24:07;;;;;;;12.90;6.20;;;5.80;99.90;;;;;;5032655;28;20473;-45
2021/03/26 02:26:37;;;;;;;10.10;5.80;;;5.90;99.90;;;;;;5031854;28;20449;-45
2021/03/26 02:29:22;;;;;;;10.10;6.13;;;5.90;99.90;;;;;;5032043;28;20952;-44
2021/03/26 02:31:49;;;;;;;9.43;5.70;;;5.90;99.90;;;;;;5032542;28;20449;-45
2021/03/26 02:34:16;;;;;;;15.70;5.63;;;5.80;99.90;;;;;;5032120;28;21052;-45
2021/03/26 02:36:46;;;;;;;14.10;5.63;;;5.80;99.90;;;;;;5032268;28;20448;-45
2021/03/26 02:39:24;;;;;;;10.77;5.70;;;5.90;99.90;;;;;;5032874;28;20444;-45
2021/03/26 02:41:55;;;;;;;7.67;5.57;;;5.70;99.90;;;;;;5031814;28;20512;-44
2021/03/26 02:44:29;;;;;;;9.00;5.80;;;5.70;99.90;;;;;;5028830;28;20530;-45
2021/03/26 02:47:02;;;;;;;10.67;5.60;;;5.60;99.90;;;;;;5032038;28;20463;-45
2021/03/26 02:49:39;;;;;;;10.13;5.70;;;5.60;99.90;;;;;;5032191;28;20452;-45
2021/03/26 02:52:11;;;;;;;7.97;6.10;;;5.70;99.90;;;;;;5032441;28;20460;-45
2021/03/26 02:54:43;;;;;;;11.23;6.00;;;5.60;99.90;;;;;;5032128;28;20473;-45
2021/03/26 02:57:14;;;;;;;10.83;6.07;;;5.50;99.90;;;;;;5031599;28;20466;-45
2021/03/26 02:59:44;;;;;;;9.47;5.77;;;5.40;99.90;;;;;;5032107;28;20601;-45
2021/03/26 03:02:14;;;;;;;12.10;6.87;;;5.30;99.90;;;;;;5013385;28;20548;-45
2021/03/26 03:04:44;;;;;;;11.13;6.90;;;5.40;99.90;;;;;;5021499;28;20473;-45
2021/03/26 03:07:14;;;;;;;12.20;7.13;;;5.30;99.90;;;;;;5031774;28;20456;-45
2021/03/26 03:09:44;;;;;;;9.30;5.90;;;5.10;99.90;;;;;;5031901;28;20444;-45
2021/03/26 03:12:17;;;;;;;12.13;7.03;;;5.10;99.90;;;;;;5030886;28;20452;-45
2021/03/26 03:14:47;;;;;;;8.97;5.60;;;5.10;99.90;;;;;;5026844;28;20476;-45
2021/03/26 03:17:19;;;;;;;9.27;6.03;;;5.20;99.90;;;;;;5012068;28;20461;-45
2021/03/26 03:19:53;;;;;;;11.47;6.80;;;5.30;99.90;;;;;;5030459;28;20510;-45
2021/03/26 03:22:25;;;;;;;10.83;6.70;;;5.40;99.90;;;;;;5031514;28;20472;-45
2021/03/26 03:24:55;;;;;;;15.07;7.50;;;5.50;99.90;;;;;;5031602;28;20453;-45
2021/03/26 03:27:32;;;;;;;12.83;7.40;;;5.40;99.90;;;;;;5030846;28;20961;-45
2021/03/26 03:30:10;;;;;;;9.47;6.53;;;5.40;99.90;;;;;;5031455;28;20483;-45
2021/03/26 03:32:43;;;;;;;13.50;7.03;;;5.20;99.90;;;;;;5024841;28;20452;-44
2021/03/26 03:35:18;;;;;;;12.13;6.40;;;5.20;99.90;;;;;;5072181;22;20557;-47
2021/03/26 03:38:03;;;;;;;16.30;5.80;;;5.20;99.90;;;;;;5054779;28;20510;-47
2021/03/26 03:40:35;;;;;;;13.03;5.67;;;5.20;99.90;;;;;;5048395;28;20971;-47
2021/03/26 03:43:07;;;;;;;12.73;6.17;;;5.30;99.90;;;;;;5040279;28;20453;-47
2021/03/26 03:45:40;;;;;;;10.83;5.90;;;5.20;99.90;;;;;;5039856;28;20448;-47
2021/03/26 03:48:12;;;;;;;12.47;6.20;;;5.10;99.90;;;;;;5051352;28;20484;-47
2021/03/26 03:50:43;;;;;;;8.27;5.40;;;5.10;99.90;;;;;;5051315;28;20445;-47
2021/03/26 03:53:15;;;;;;;8.90;5.80;;;5.20;99.90;;;;;;5036818;28;20467;-47
2021/03/26 03:55:48;;;;;;;11.53;6.00;;;5.20;99.90;;;;;;5044200;28;20507;-46
2021/03/26 03:58:19;;;;;;;10.10;5.40;;;5.00;99.90;;;;;;5048581;28;20802;-47
2021/03/26 04:00:53;;;;;;;11.40;6.40;;;5.00;99.90;;;;;;5049992;28;20479;-46
2021/03/26 04:03:23;;;;;;;13.67;6.67;;;5.00;99.90;;;;;;5051031;28;20538;-47
2021/03/26 04:05:54;;;;;;;9.33;5.83;;;5.10;99.90;;;;;;5050869;28;20521;-47
2021/03/26 04:08:26;;;;;;;10.80;6.73;;;5.10;99.90;;;;;;5050830;28;20475;-47
2021/03/26 04:11:00;;;;;;;10.73;6.40;;;4.90;99.90;;;;;;5050845;28;20463;-47
2021/03/26 04:13:36;;;;;;;11.73;6.03;;;4.70;99.90;;;;;;5050785;28;20476;-46
2021/03/26 04:16:03;;;;;;;12.33;5.77;;;4.60;99.90;;;;;;5050887;28;20818;-47
2021/03/26 04:18:34;;;;;;;9.13;5.60;;;4.60;99.90;;;;;;5051061;28;20435;-46
2021/03/26 04:21:08;;;;;;;8.70;5.70;;;4.70;99.90;;;;;;5050657;28;20470;-46
2021/03/26 04:23:39;;;;;;;8.60;5.40;;;4.80;99.90;;;;;;5034338;28;20475;-46
2021/03/26 04:26:16;;;;;;;9.50;6.07;;;4.60;99.90;;;;;;5030706;28;20453;-47
2021/03/26 04:28:48;;;;;;;10.27;5.57;;;4.90;99.90;;;;;;5030699;28;21012;-47
2021/03/26 04:31:20;;;;;;;10.60;5.60;;;4.70;99.90;;;;;;5048974;28;20460;-47
2021/03/26 04:33:47;;;;;;;8.33;5.40;;;4.60;99.90;;;;;;5050334;28;20506;-47
2021/03/26 04:36:18;;;;;;;9.80;4.90;;;4.50;99.90;;;;;;5050111;28;20451;-47
2021/03/26 04:38:51;;;;;;;11.07;6.37;;;4.50;99.90;;;;;;5051151;28;20834;-47
2021/03/26 04:41:24;;;;;;;11.90;5.07;;;4.50;99.90;;;;;;5055112;28;20447;-47
2021/03/26 04:43:55;;;;;;;7.33;4.80;;;4.50;99.90;;;;;;5053881;28;20989;-47
2021/03/26 04:46:26;;;;;;;7.93;5.57;;;4.40;99.90;;;;;;5050341;28;20805;-47
2021/03/26 04:49:02;;;;;;;7.87;4.97;;;4.50;99.90;;;;;;5054869;28;20861;-48
2021/03/26 04:51:35;;;;;;;7.00;4.70;;;4.60;99.90;;;;;;5054628;28;20948;-47
2021/03/26 04:54:17;;;;;;;8.37;5.10;;;4.60;99.90;;;;;;5054490;28;20476;-47
2021/03/26 04:56:48;;;;;;;7.90;4.60;;;4.80;99.90;;;;;;5054231;28;20451;-47
2021/03/26 04:59:16;;;;;;;10.63;5.23;;;4.80;99.90;;;;;;5054646;28;20811;-47
2021/03/26 05:01:46;;;;;;;7.03;5.00;;;4.80;99.90;;;;;;5052593;28;20474;-47
2021/03/26 05:04:21;;;;;;;7.80;4.57;;;4.80;99.90;;;;;;5053961;28;20983;-47
2021/03/26 05:06:53;;;;;;;9.77;5.40;;;4.70;99.90;;;;;;5054035;28;20484;-47
2021/03/26 05:09:22;;;;;;;7.60;5.33;;;4.60;99.90;;;;;;5052762;28;20540;-47
2021/03/26 05:11:54;;;;;;;8.73;4.80;;;4.50;99.90;;;;;;5052959;28;20865;-47
2021/03/26 05:14:26;;;;;;;10.33;5.37;;;4.50;99.90;;;;;;5053113;28;20521;-47
2021/03/26 05:16:57;;;;;;;10.87;6.60;;;4.50;99.90;;;;;;5052849;28;20447;-47
2021/03/26 05:19:32;;;;;;;13.40;7.23;;;4.60;99.90;;;;;;5049030;28;20444;-47
2021/03/26 05:22:06;;;;;;;11.13;6.73;;;4.90;99.90;;;;;;5052956;28;20447;-47
2021/03/26 05:24:40;;;;;;;10.60;6.37;;;4.80;99.90;;;;;;5053129;28;20455;-47
2021/03/26 05:27:11;;;;;;;9.53;6.50;;;4.70;99.90;;;;;;5048946;28;20451;-47
2021/03/26 05:29:38;;;;;;;11.23;6.10;;;4.70;99.90;;;;;;5050459;28;20484;-47
2021/03/26 05:32:11;;;;;;;12.67;6.07;;;4.60;99.90;;;;;;5050685;28;20451;-47
2021/03/26 05:34:48;;;;;;;11.53;5.53;;;4.60;99.90;;;;;;5061721;28;20529;-47
2021/03/26 05:37:20;;;;;;;10.60;5.70;;;4.60;99.90;;;;;;5060836;28;20455;-47
2021/03/26 05:39:53;;;;;;;10.07;5.60;;;4.70;99.90;;;;;;5061573;28;20440;-47
2021/03/26 05:42:44;;;;;;;9.63;6.57;;;4.70;99.90;;;;;;5062285;28;20447;-47
2021/03/26 05:45:25;;;;;;;10.83;5.90;;;4.70;99.90;;;;;;5056324;28;21221;-48
2021/03/26 05:48:05;;;;;;;7.30;5.40;;;4.80;99.90;;;;;;5055834;28;20855;-48
2021/03/26 05:50:54;;;;;;;9.17;5.00;;;4.80;99.90;;;;;;5052235;28;20947;-48
2021/03/26 05:53:33;;;;;;;8.37;5.43;;;5.00;99.90;;;;;;5047501;28;20972;-48
2021/03/26 05:56:11;;;;;;;7.80;4.57;;;5.10;99.90;;;;;;5048306;28;20448;-48
2021/03/26 05:58:58;;;;;;;8.40;4.37;;;5.10;99.90;;;;;;5048903;28;20441;-48
2021/03/26 06:01:55;;;;;;;8.40;5.00;;;5.20;99.90;;;;;;5050808;28;21482;-48
2021/03/26 06:05:04;;;;;;;15.40;5.53;;;5.40;99.90;;;;;;5050853;28;20463;-48
2021/03/26 06:07:54;;;;;;;9.17;5.43;;;5.60;99.90;;;;;;5031974;28;20447;-48
2021/03/26 06:10:56;;;;;;;10.37;5.47;;;6.00;99.90;;;;;;5051395;28;20523;-48
2021/03/26 06:14:00;;;;;;;8.30;5.30;;;6.80;99.90;;;;;;5037069;28;20508;-48
2021/03/26 06:16:36;;;;;;;8.43;5.40;;;8.10;99.90;;;;;;5049457;28;20502;-48
2021/03/26 06:19:35;;;;;;;12.33;5.80;;;9.00;99.90;;;;;;5040141;28;20483;-49
2021/03/26 06:22:34;;;;;;;9.23;5.07;;;9.90;99.90;;;;;;5041781;28;20451;-49
2021/03/26 06:25:31;;;;;;;7.40;4.47;;;10.90;99.90;;;;;;5043773;28;20563;-49
2021/03/26 06:28:09;;;;;;;7.70;4.60;;;11.50;99.90;;;;;;5041109;28;20483;-48
2021/03/26 06:30:49;;;;;;;6.53;4.10;;;12.00;99.90;;;;;;5043186;28;20448;-49
2021/03/26 06:33:56;;;;;;;6.13;4.40;;;12.40;99.90;;;;;;5043640;28;20893;-48
2021/03/26 06:36:47;;;;;;;6.30;4.20;;;12.80;99.80;;;;;;5035437;28;20461;-49
2021/03/26 06:39:47;;;;;;;5.40;3.70;;;13.20;98.10;;;;;;5044898;28;20209;-49
2021/03/26 06:43:01;;;;;;;6.50;4.33;;;13.40;97.30;;;;;;5033308;28;20464;-48
2021/03/26 06:45:48;;;;;;;8.03;5.20;;;13.60;96.20;;;;;;5009737;28;20463;-49
2021/03/26 06:48:43;;;;;;;6.93;4.40;;;13.50;97.00;;;;;;5034258;28;20537;-49
2021/03/26 06:51:40;;;;;;;14.90;5.60;;;14.00;96.40;;;;;;5030366;28;20886;-49
2021/03/26 06:54:21;;;;;;;7.00;4.63;;;14.60;95.80;;;;;;5012371;28;20525;-49
2021/03/26 06:57:15;;;;;;;3.73;3.13;;;15.20;95.50;;;;;;5035286;28;21131;-49
2021/03/26 06:59:57;;;;;;;4.17;3.00;;;15.40;93.20;;;;;;5032819;28;20974;-49
2021/03/26 07:02:56;;;;;;;5.63;3.00;;;15.10;92.20;;;;;;5033293;28;20468;-49
2021/03/26 07:05:57;;;;;;;5.83;3.63;;;14.80;92.90;;;;;;5043983;28;20479;-48
2021/03/26 07:08:41;;;;;;;4.10;3.27;;;14.40;91.90;;;;;;5030036;28;20510;-49
2021/03/26 07:11:25;;;;;;;4.40;3.27;;;14.30;93.10;;;;;;5035605;28;20475;-49
2021/03/26 07:14:10;;;;;;;4.77;2.97;;;14.60;92.30;;;;;;5031098;28;20515;-49
2021/03/26 07:16:58;;;;;;;3.80;2.67;;;14.60;92.00;;;;;;5040418;28;20909;-49
2021/03/26 07:19:53;;;;;;;3.10;2.63;;;14.90;92.20;;;;;;5003447;28;20455;-50
2021/03/26 07:22:49;;;;;;;4.40;3.23;;;15.10;91.60;;;;;;5049177;28;20525;-51
2021/03/26 07:25:31;;;;;;;7.53;3.70;;;15.40;90.50;;;;;;5043473;28;20492;-51
2021/03/26 07:28:24;;;;;;;3.70;3.23;;;15.10;91.20;;;;;;5043211;28;20523;-51
2021/03/26 07:31:00;;;;;;;7.20;3.50;;;15.60;89.80;;;;;;5044971;28;20454;-51
2021/03/26 07:33:31;;;;;;;3.23;2.83;;;15.40;91.50;;;;;;5048324;28;20479;-51
2021/03/26 07:36:11;;;;;;;8.50;3.47;;;15.50;90.80;;;;;;5048832;28;20448;-51
2021/03/26 07:39:16;;;;;;;5.60;3.53;;;15.40;91.30;;;;;;5045135;28;20444;-51
2021/03/26 07:42:16;;;;;;;4.57;3.37;;;15.40;90.50;;;;;;5028476;28;20472;-51
2021/03/26 07:45:19;;;;;;;4.90;2.90;;;15.80;90.50;;;;;;5029713;28;20910;-50
2021/03/26 07:48:03;;;;;;;10.83;4.30;;;14.90;91.00;;;;;;5036816;28;20471;-51
2021/03/26 07:50:45;;;;;;;5.10;3.60;;;15.10;91.30;;;;;;5030624;28;20452;-51
2021/03/26 07:53:44;;;;;;;5.70;3.50;;;15.70;91.00;;;;;;5031659;28;20830;-51
2021/03/26 07:56:33;;;;;;;7.60;3.00;;;15.90;90.90;;;;;;5044003;28;20997;-50
2021/03/26 07:59:50;;;;;;;5.40;3.40;;;16.10;86.90;;;;;;5036120;28;20502;-51
2021/03/26 08:02:36;;;;;;;5.53;3.40;;;16.30;87.30;;;;;;4969418;28;20486;-51
2021/03/26 08:05:07;;;;;;;4.33;3.10;;;16.50;85.30;;;;;;4969218;28;20486;-51
2021/03/26 08:07:58;;;;;;;7.27;3.30;;;16.60;86.60;;;;;;5012788;28;20454;-51
2021/03/26 08:10:34;;;;;;;4.70;3.40;;;16.90;87.70;;;;;;5035757;28;20512;-50
2021/03/26 08:13:30;;;;;;;6.67;3.90;;;16.20;85.70;;;;;;5038428;28;20925;-50
2021/03/26 08:16:06;;;;;;;7.70;3.70;;;15.90;86.40;;;;;;5027965;28;21291;-50
2021/03/26 08:18:50;;;;;;;4.97;3.30;;;16.50;88.40;;;;;;5030754;28;20540;-50
2021/03/26 08:21:20;;;;;;;4.20;3.20;;;16.80;87.10;;;;;;5034973;28;20472;-52
2021/03/26 08:23:58;;;;;;;7.03;3.73;;;16.90;85.40;;;;;;5041138;28;20465;-51
2021/03/26 08:26:38;;;;;;;6.30;3.87;;;17.10;86.90;;;;;;5037131;28;20556;-51
2021/03/26 08:29:25;;;;;;;5.10;3.73;;;17.00;84.80;;;;;;5042290;28;20484;-51
2021/03/26 08:32:04;;;;;;;5.23;3.73;;;16.70;87.50;;;;;;5034228;28;20482;-50
2021/03/26 08:34:54;;;;;;;7.40;3.57;;;17.30;88.20;;;;;;5034851;28;20588;-51
2021/03/26 08:37:28;;;;;;;9.63;4.07;;;18.00;84.70;;;;;;5034253;28;20469;-52
2021/03/26 08:39:58;;;;;;;4.93;3.67;;;18.40;80.80;;;;;;5038119;28;21043;-51
2021/03/26 08:42:29;;;;;;;5.70;3.60;;;18.50;82.20;;;;;;5031497;28;20468;-52
2021/03/26 08:44:59;;;;;;;5.00;3.60;;;18.10;80.70;;;;;;5028445;28;20487;-50
2021/03/26 08:47:35;;;;;;;4.70;3.80;;;18.50;78.30;;;;;;5019613;28;20459;-51
2021/03/26 08:50:26;;;;;;;5.60;3.20;;;18.60;79.40;;;;;;5025297;28;20506;-51
2021/03/26 08:53:03;;;;;;;5.30;3.57;;;18.20;81.10;;;;;;5043663;28;20452;-52
2021/03/26 08:55:56;;;;;;;4.77;3.63;;;18.50;80.10;;;;;;5050130;28;20454;-50
2021/03/26 08:58:57;;;;;;;3.90;3.50;;;17.80;81.80;;;;;;5049970;28;20534;-52
2021/03/26 09:01:46;;;;;;;4.90;3.50;;;17.90;77.00;;;;;;5047031;28;20462;-51
2021/03/26 09:04:39;;;;;;;5.50;3.73;;;18.40;75.10;;;;;;5050113;28;20549;-51
2021/03/26 09:07:16;;;;;;;4.17;3.37;;;19.50;74.80;;;;;;5050476;28;20448;-51
2021/03/26 09:10:18;;;;;;;5.97;3.30;;;18.30;78.00;;;;;;5050646;28;20479;-50
2021/03/26 09:13:08;;;;;;;7.67;3.60;;;18.40;79.60;;;;;;5050545;28;20488;-50
2021/03/26 09:15:43;;;;;;;4.70;3.43;;;18.20;83.00;;;;;;5049786;28;20451;-50
2021/03/26 09:18:22;;;;;;;5.20;3.70;;;18.40;77.90;;;;;;5050266;28;20447;-52
2021/03/26 09:21:01;;;;;;;5.27;3.37;;;18.50;75.10;;;;;;5050108;28;20459;-49
2021/03/26 09:23:49;;;;;;;5.87;3.87;;;19.30;76.60;;;;;;5049952;28;20554;-50
2021/03/26 09:26:38;;;;;;;4.57;3.50;;;19.70;75.60;;;;;;5053584;28;20464;-51
2021/03/26 09:29:09;;;;;;;4.67;3.90;;;19.80;72.30;;;;;;5053672;28;20484;-49
2021/03/26 09:31:42;;;;;;;5.07;3.80;;;19.40;70.80;;;;;;5047772;28;20449;-50
2021/03/26 09:34:21;;;;;;;10.83;3.20;;;19.10;75.20;;;;;;5060708;22;20479;-49
2021/03/26 09:37:06;;;;;;;6.80;3.60;;;18.70;74.10;;;;;;5033015;28;20961;-47
2021/03/26 09:39:39;;;;;;;7.57;3.70;;;18.10;75.20;;;;;;5033434;28;20455;-47
2021/03/26 09:42:25;;;;;;;4.87;3.20;;;18.50;80.00;;;;;;5033546;28;20444;-47
2021/03/26 09:45:00;;;;;;;4.33;3.67;;;18.60;75.50;;;;;;5033438;28;20986;-47
2021/03/26 09:47:32;;;;;;;4.90;3.83;;;19.60;79.10;;;;;;5032166;28;20448;-47
2021/03/26 09:50:06;;;;;;;8.50;5.27;;;20.10;69.40;;;;;;5033002;28;20576;-47
2021/03/26 09:52:39;;;;;;;6.03;5.33;;;20.10;76.80;;;;;;5032295;28;20451;-47
2021/03/26 09:55:11;;;;;;;7.43;5.40;;;20.40;78.00;;;;;;5032722;28;20469;-47
2021/03/26 09:57:45;;;;;;;10.43;6.60;;;20.30;82.10;;;;;;5033466;28;20452;-47
2021/03/26 10:00:40;;;;;;;10.70;6.43;;;19.80;81.10;;;;;;5033326;28;20448;-47
2021/03/26 10:03:13;;;;;;;10.00;6.80;;;17.60;83.80;;;;;;5026199;28;21143;-47
2021/03/26 10:05:54;;;;;;;8.03;5.60;;;17.40;87.90;;;;;;5033486;28;20978;-46
2021/03/26 10:11:18;;;;;;;27.63;7.50;;;18.00;84.90;;;;;;5017426;28;20447;-46
2021/03/26 10:13:50;;;;;;;12.30;8.20;;;17.90;90.10;;;;;;5032999;28;20445;-46
2021/03/26 10:16:22;;;;;;;8.47;7.20;;;17.20;91.40;;;;;;5032423;28;20468;-46
2021/03/26 10:18:53;;;;;;;10.20;7.20;;;18.10;89.40;;;;;;5013133;28;20446;-46
2021/03/26 10:21:24;;;;;;;8.60;7.23;;;18.70;85.10;;;;;;5030499;28;20461;-46
2021/03/26 10:24:05;;;;;;;11.23;7.00;;;19.60;82.40;;;;;;5020703;28;20449;-47
2021/03/26 10:26:38;;;;;;;9.20;6.73;;;20.00;78.90;;;;;;5013676;28;20895;-47
2021/03/26 10:29:17;;;;;;;12.33;7.00;;;20.20;81.10;;;;;;5032756;28;21000;-47
2021/03/26 10:31:46;;;;;;;8.03;6.70;;;20.60;79.50;;;;;;5033109;28;20444;-47
2021/03/26 10:34:16;;;;;;;13.17;7.43;;;20.60;79.10;;;;;;5032662;28;20448;-46
2021/03/26 10:36:50;;;;;;;10.50;6.77;;;19.40;85.10;;;;;;5029445;28;20463;-47
2021/03/26 10:39:21;;;;;;;9.30;6.50;;;19.70;78.00;;;;;;5032692;28;20532;-46
2021/03/26 10:42:16;;;;;;;8.80;7.30;;;19.80;83.50;;;;;;5032298;28;20591;-46
2021/03/26 10:45:02;;;;;;;7.50;5.93;;;19.60;76.90;;;;;;5032348;28;20464;-46
2021/03/26 10:47:35;;;;;;;8.27;6.30;;;19.70;82.00;;;;;;5032103;28;20513;-47
2021/03/26 10:50:15;;;;;;;7.60;6.13;;;20.30;78.80;;;;;;5032320;28;20487;-47
2021/03/26 10:52:44;;;;;;;9.10;6.70;;;20.30;78.60;;;;;;5017412;28;20469;-46
2021/03/26 10:55:14;;;;;;;10.80;7.10;;;20.80;78.30;;;;;;5029519;28;20507;-46
2021/03/26 10:57:46;;;;;;;10.60;6.57;;;20.40;75.70;;;;;;5031346;28;20444;-46
2021/03/26 11:00:22;;;;;;;7.60;5.60;;;20.50;74.50;;;;;;5030894;28;20456;-46
2021/03/26 11:03:08;;;;;;;10.20;6.33;;;20.70;74.30;;;;;;5020526;28;20464;-46
2021/03/26 11:05:44;;;;;;;11.00;6.47;;;20.60;75.40;;;;;;5030393;28;20507;-46
2021/03/26 11:08:28;;;;;;;14.20;6.20;;;20.10;74.40;;;;;;5028093;28;20472;-46
2021/03/26 11:11:01;;;;;;;8.20;6.03;;;19.80;78.30;;;;;;5023080;28;20464;-46
2021/03/26 11:13:38;;;;;;;12.00;6.47;;;19.90;76.30;;;;;;5020582;28;20969;-46
2021/03/26 11:16:12;;;;;;;9.00;6.10;;;19.90;76.60;;;;;;5022031;28;20480;-46
2021/03/26 11:18:47;;;;;;;10.73;6.67;;;19.50;81.50;;;;;;5021998;28;20456;-46
2021/03/26 11:21:18;;;;;;;9.53;6.40;;;19.10;83.10;;;;;;5021793;28;20464;-46
2021/03/26 11:23:55;;;;;;;7.40;6.10;;;19.10;83.00;;;;;;5022635;28;20464;-46
2021/03/26 11:26:30;;;;;;;10.00;7.93;;;18.90;83.10;;;;;;5031514;28;20464;-46
2021/03/26 11:29:14;;;;;;;9.23;6.67;;;19.10;80.30;;;;;;5028594;28;20488;-46
2021/03/26 11:31:49;;;;;;;14.40;7.53;;;18.60;85.10;;;;;;5023487;28;20471;-46
2021/03/26 11:34:31;;;;;;;11.60;6.90;;;17.60;84.20;;;;;;5023113;28;20469;-46
2021/03/26 11:37:16;;;;;;;10.80;6.97;;;17.20;84.80;;;;;;5023630;28;20465;-46
2021/03/26 11:39:59;;;;;;;10.13;6.43;;;17.60;84.20;;;;;;5022659;28;20535;-45
2021/03/26 11:42:48;;;;;;;8.80;6.87;;;18.10;82.50;;;;;;5023360;28;20547;-46
2021/03/26 11:45:35;;;;;;;13.98;7.93;;;18.30;85.60;;;;;;5021940;28;20500;-46
2021/03/26 11:48:35;;;;;;;10.70;7.63;;;17.60;90.40;;;;;;5021527;28;20211;-46
2021/03/26 11:51:11;;;;;;;13.13;7.73;;;17.50;88.20;;;;;;5021270;28;20464;-45
2021/03/26 11:53:55;;;;;;;11.03;8.33;;;17.50;86.60;;;;;;5026322;28;20467;-46
2021/03/26 11:56:29;;;;;;;15.07;10.37;;;17.30;91.20;;;;;;5019609;28;20875;-46
2021/03/26 11:59:11;;;;;;;14.00;9.40;;;16.60;92.80;;;;;;5021163;28;20452;-45
2021/03/26 12:01:47;;;;;;;16.90;9.37;;;16.20;93.60;;;;;;5023783;28;20993;-45
2021/03/26 12:04:18;;;;;;;14.93;9.30;;;16.20;93.00;;;;;;5021068;28;20575;-45
2021/03/26 12:06:52;;;;;;;15.90;10.23;;;16.30;92.40;;;;;;5020816;28;20529;-45
2021/03/26 12:09:28;;;;;;;13.70;9.17;;;16.30;92.40;;;;;;5024332;28;20623;-45
2021/03/26 12:12:08;;;;;;;15.93;9.30;;;16.30;92.00;;;;;;5020748;28;20465;-46
2021/03/26 12:14:45;;;;;;;13.23;9.23;;;16.20;92.70;;;;;;5020701;28;20567;-46
2021/03/26 12:17:36;;;;;;;15.73;8.97;;;16.10;93.20;;;;;;5020605;28;20853;-45
2021/03/26 12:20:11;;;;;;;15.60;9.37;;;16.30;92.30;;;;;;5020678;28;20467;-46
2021/03/26 12:23:00;;;;;;;20.73;10.30;;;16.10;92.90;;;;;;5021365;28;20460;-46
2021/03/26 12:25:32;;;;;;;13.20;9.67;;;15.90;93.40;;;;;;5018695;28;20849;-46
2021/03/26 12:28:05;;;;;;;17.83;10.53;;;15.80;92.80;;;;;;5020885;28;20865;-45
2021/03/26 12:30:37;;;;;;;16.33;9.70;;;15.80;93.20;;;;;;5021271;28;20491;-46
2021/03/26 12:33:08;;;;;;;15.90;9.77;;;15.80;93.00;;;;;;5021785;28;20464;-46
2021/03/26 12:35:42;;;;;;;12.13;9.57;;;15.90;92.90;;;;;;5020837;28;20498;-46
2021/03/26 12:38:15;;;;;;;13.83;9.63;;;16.00;92.20;;;;;;5020081;28;20464;-45
2021/03/26 12:41:03;;;;;;;13.20;9.40;;;15.80;94.00;;;;;;5020778;28;20468;-46
2021/03/26 12:43:39;;;;;;;14.30;9.70;;;15.80;92.90;;;;;;5021311;28;20506;-45
2021/03/26 12:46:16;;;;;;;15.40;8.37;;;15.90;93.30;;;;;;5021106;28;20567;-46
2021/03/26 12:48:47;;;;;;;15.87;9.97;;;16.20;93.40;;;;;;5023081;28;20484;-46
2021/03/26 12:51:26;;;;;;;13.50;9.13;;;16.20;93.60;;;;;;5021308;28;20464;-46
2021/03/26 12:53:58;;;;;;;14.13;9.00;;;16.10;92.40;;;;;;5020074;28;20495;-46
2021/03/26 12:56:32;;;;;;;15.83;9.90;;;16.30;92.30;;;;;;5019736;28;20448;-46
2021/03/26 12:59:10;;;;;;;15.97;9.60;;;16.20;93.50;;;;;;5020840;28;20615;-45
2021/03/26 13:01:43;;;;;;;16.93;9.43;;;16.10;92.90;;;;;;5026671;28;20461;-46
2021/03/26 13:04:19;;;;;;;11.13;7.87;;;16.10;93.40;;;;;;5026788;28;20539;-46
2021/03/26 13:06:49;;;;;;;14.87;8.03;;;16.10;92.30;;;;;;5024275;28;20468;-46
2021/03/26 13:09:29;;;;;;;15.40;9.00;;;16.40;91.20;;;;;;5023575;28;20997;-46
2021/03/26 13:12:04;;;;;;;12.97;8.23;;;16.40;92.10;;;;;;5024158;28;20460;-45
2021/03/26 13:14:36;;;;;;;13.30;7.53;;;16.60;90.30;;;;;;5024663;28;20483;-46
2021/03/26 13:17:03;;;;;;;10.67;7.23;;;16.70;87.40;;;;;;5022977;28;21058;-46
2021/03/26 13:19:36;;;;;;;12.40;7.30;;;16.60;89.50;;;;;;5023156;28;20563;-46
2021/03/26 13:22:21;;;;;;;10.30;6.30;;;16.50;87.60;;;;;;5028009;28;20460;-46
2021/03/26 13:25:01;;;;;;;11.27;6.60;;;16.50;86.90;;;;;;5020365;28;20480;-46
2021/03/26 13:27:38;;;;;;;10.83;7.00;;;16.40;87.10;;;;;;5024285;28;20460;-46
2021/03/26 13:30:33;;;;;;;14.50;6.80;;;16.30;86.40;;;;;;5026785;28;20484;-45
2021/03/26 13:33:24;;;;;;;12.50;6.70;;;16.50;86.20;;;;;;5024435;28;20456;-46
2021/03/26 13:36:06;;;;;;;12.23;7.30;;;16.80;83.10;;;;;;5011053;28;20546;-46
2021/03/26 13:39:00;;;;;;;14.20;8.40;;;16.60;86.30;;;;;;5026934;28;20471;-46
2021/03/26 13:41:37;;;;;;;13.13;7.70;;;16.30;87.30;;;;;;5025716;28;20992;-46